Time;durP1;ratioP1;P1;durP2;ratioP2;P2;SDS_P1;SDS_P2;PMS_P1;PMS_P2;Temp;Humidity;BMP_temperature;BMP_pressure;BME280_temperature;BME280_humidity;BME280_pressure;Samples;Min_cycle;Max_cycle;Signal;HPM_P1;HPM_P2
2022/10/29 00:00:20;;;;;;;2.38;1.48;;;;;;;;;;6123462;23;20022;-84
2022/10/29 00:02:50;;;;;;;1.13;0.82;;;;;;;;;;6123299;23;20022;-84
2022/10/29 00:05:18;;;;;;;1.52;0.45;;;;;;;;;;6124626;23;20068;-82
2022/10/29 00:07:47;;;;;;;9.68;1.08;;;;;;;;;;6124705;23;20030;-82
2022/10/29 00:10:15;;;;;;;0.65;0.50;;;;;;;;;;6123540;23;20030;-82
2022/10/29 00:12:43;;;;;;;1.75;1.10;;;;;;;;;;6123416;23;20029;-83
2022/10/29 00:15:12;;;;;;;1.48;0.50;;;;;;;;;;6123907;23;20022;-82
2022/10/29 00:17:40;;;;;;;1.08;0.50;;;;;;;;;;6124065;23;20460;-80
2022/10/29 00:20:10;;;;;;;1.63;1.00;;;;;;;;;;6124263;23;20029;-80
2022/10/29 00:22:38;;;;;;;0.82;0.70;;;;;;;;;;6122896;23;20022;-80
2022/10/29 00:25:07;;;;;;;2.08;1.08;;;;;;;;;;6123932;23;20029;-80
2022/10/29 00:27:35;;;;;;;1.17;0.90;;;;;;;;;;6122606;23;20033;-80
2022/10/29 00:30:04;;;;;;;1.80;1.27;;;;;;;;;;6123827;23;20061;-80
2022/10/29 00:32:32;;;;;;;0.95;0.50;;;;;;;;;;6123334;23;20029;-80
2022/10/29 00:35:00;;;;;;;1.50;1.00;;;;;;;;;;6124078;23;20033;-84
2022/10/29 00:37:30;;;;;;;0.57;0.52;;;;;;;;;;6122336;23;20484;-82
2022/10/29 00:39:58;;;;;;;2.72;0.63;;;;;;;;;;6124750;23;20026;-81
2022/10/29 00:42:26;;;;;;;0.75;0.47;;;;;;;;;;6122446;23;20113;-80
2022/10/29 00:44:55;;;;;;;1.80;0.60;;;;;;;;;;6123854;23;20022;-80
2022/10/29 00:47:24;;;;;;;0.82;0.50;;;;;;;;;;6123092;23;20044;-80
2022/10/29 00:49:55;;;;;;;3.90;1.55;;;;;;;;;;6124240;23;20352;-80
2022/10/29 00:52:27;;;;;;;2.63;0.80;;;;;;;;;;6123106;23;20482;-80
2022/10/29 00:54:57;;;;;;;1.50;0.82;;;;;;;;;;6123717;23;20459;-80
2022/10/29 00:57:28;;;;;;;1.33;0.57;;;;;;;;;;6123653;23;20018;-80
2022/10/29 00:59:56;;;;;;;1.20;0.73;;;;;;;;;;6123425;23;20393;-80
2022/10/29 01:02:24;;;;;;;3.00;0.82;;;;;;;;;;6122601;23;20022;-80
2022/10/29 01:04:53;;;;;;;3.05;0.70;;;;;;;;;;6122822;23;20025;-80
2022/10/29 01:07:22;;;;;;;1.88;0.75;;;;;;;;;;6123431;23;20022;-80
2022/10/29 01:09:51;;;;;;;5.03;1.15;;;;;;;;;;6123464;23;20029;-82
2022/10/29 01:12:30;;;;;;;0.68;0.50;;;;;;;;;;6120111;23;20026;-82
2022/10/29 01:15:04;;;;;;;1.48;0.82;;;;;;;;;;6123678;23;20033;-80
2022/10/29 01:17:36;;;;;;;1.15;0.65;;;;;;;;;;6124442;23;20033;-81
2022/10/29 01:20:24;;;;;;;4.82;1.25;;;;;;;;;;6122923;23;20025;-80
2022/10/29 01:23:01;;;;;;;0.50;0.50;;;;;;;;;;6123400;23;20018;-80
2022/10/29 01:25:37;;;;;;;4.80;0.80;;;;;;;;;;6123641;23;20069;-80
2022/10/29 01:28:11;;;;;;;4.30;1.15;;;;;;;;;;6122984;23;20033;-80
2022/10/29 01:30:57;;;;;;;3.47;1.08;;;;;;;;;;6123251;23;20459;-80
2022/10/29 01:33:27;;;;;;;1.38;0.60;;;;;;;;;;6120063;23;20390;-82
2022/10/29 01:35:58;;;;;;;1.17;1.10;;;;;;;;;;6122790;23;20025;-80
2022/10/29 01:38:32;;;;;;;1.05;0.93;;;;;;;;;;6124018;23;20022;-78
2022/10/29 01:41:04;;;;;;;1.55;0.80;;;;;;;;;;6120957;23;20045;-81
2022/10/29 01:43:34;;;;;;;1.88;0.70;;;;;;;;;;6123466;23;20029;-80
2022/10/29 01:46:06;;;;;;;10.45;0.93;;;;;;;;;;6122799;23;20019;-81
2022/10/29 01:48:36;;;;;;;1.58;0.80;;;;;;;;;;6124131;23;20018;-80
2022/10/29 01:51:07;;;;;;;1.27;0.60;;;;;;;;;;6122680;23;20026;-78
2022/10/29 01:53:36;;;;;;;4.25;0.55;;;;;;;;;;6123319;23;20022;-80
2022/10/29 01:56:04;;;;;;;4.38;1.02;;;;;;;;;;6123269;23;20021;-80
2022/10/29 01:58:34;;;;;;;0.85;0.77;;;;;;;;;;6123890;23;20034;-82
2022/10/29 02:01:07;;;;;;;0.57;0.40;;;;;;;;;;6119412;23;20351;-80
2022/10/29 02:03:43;;;;;;;3.88;1.23;;;;;;;;;;6123259;23;20455;-80
2022/10/29 02:06:15;;;;;;;0.60;0.60;;;;;;;;;;6122741;23;20022;-79
2022/10/29 02:08:47;;;;;;;3.70;0.85;;;;;;;;;;6123842;23;20163;-80
2022/10/29 02:11:19;;;;;;;1.67;0.75;;;;;;;;;;6124277;23;20210;-80
2022/10/29 02:13:51;;;;;;;1.40;1.05;;;;;;;;;;6125175;23;20026;-81
2022/10/29 02:16:21;;;;;;;1.00;0.60;;;;;;;;;;6124421;23;20018;-81
2022/10/29 02:18:50;;;;;;;8.43;1.15;;;;;;;;;;6125028;23;20025;-81
2022/10/29 02:21:18;;;;;;;1.38;0.68;;;;;;;;;;6123849;23;20026;-80
2022/10/29 02:23:47;;;;;;;0.82;0.63;;;;;;;;;;6125976;23;20029;-78
2022/10/29 02:26:15;;;;;;;0.73;0.57;;;;;;;;;;6124646;23;20021;-80
2022/10/29 02:28:44;;;;;;;0.80;0.77;;;;;;;;;;6125673;23;20018;-80
2022/10/29 02:31:12;;;;;;;0.40;0.40;;;;;;;;;;6122712;23;20033;-79
2022/10/29 02:33:42;;;;;;;1.80;0.70;;;;;;;;;;6125048;23;20026;-80
2022/10/29 02:36:10;;;;;;;2.83;0.73;;;;;;;;;;6124648;23;20399;-80
2022/10/29 02:38:38;;;;;;;1.30;1.20;;;;;;;;;;6124464;23;20440;-81
2022/10/29 02:41:07;;;;;;;2.30;0.70;;;;;;;;;;6123736;23;20037;-80
2022/10/29 02:43:35;;;;;;;1.88;0.65;;;;;;;;;;6122858;23;20337;-80
2022/10/29 02:46:16;;;;;;;0.30;0.30;;;;;;;;;;6124866;23;20022;-81
2022/10/29 02:48:46;;;;;;;1.10;0.65;;;;;;;;;;6123862;23;20022;-80
2022/10/29 02:51:14;;;;;;;1.05;0.52;;;;;;;;;;6124499;23;20014;-80
2022/10/29 02:53:42;;;;;;;1.13;0.90;;;;;;;;;;6123890;23;20473;-80
2022/10/29 02:56:11;;;;;;;2.08;0.90;;;;;;;;;;6125773;23;20033;-79
2022/10/29 02:58:39;;;;;;;0.98;0.60;;;;;;;;;;6123260;23;20097;-80
2022/10/29 03:01:08;;;;;;;2.17;1.08;;;;;;;;;;6123983;23;20075;-80
2022/10/29 03:03:36;;;;;;;0.30;0.30;;;;;;;;;;6123541;23;20360;-80
2022/10/29 03:06:12;;;;;;;1.10;0.75;;;;;;;;;;6124120;23;20018;-80
2022/10/29 03:08:40;;;;;;;1.08;0.98;;;;;;;;;;6124521;23;20485;-81
2022/10/29 03:11:09;;;;;;;0.38;0.30;;;;;;;;;;6123542;23;20028;-80
2022/10/29 03:13:37;;;;;;;1.65;0.85;;;;;;;;;;6124912;23;20025;-80
2022/10/29 03:16:10;;;;;;;0.90;0.60;;;;;;;;;;6124470;23;20040;-79
2022/10/29 03:18:39;;;;;;;1.33;0.88;;;;;;;;;;6124576;23;20018;-80
2022/10/29 03:21:08;;;;;;;1.73;0.70;;;;;;;;;;6123034;23;20097;-80
2022/10/29 03:23:37;;;;;;;2.38;0.57;;;;;;;;;;6124782;23;20018;-80
2022/10/29 03:26:05;;;;;;;0.30;0.30;;;;;;;;;;6123649;23;20025;-81
2022/10/29 03:28:34;;;;;;;2.45;0.50;;;;;;;;;;6124436;23;20026;-80
2022/10/29 03:31:02;;;;;;;1.35;0.65;;;;;;;;;;6122829;23;20018;-80
2022/10/29 03:33:30;;;;;;;0.50;0.35;;;;;;;;;;6124117;23;20557;-80
2022/10/29 03:35:59;;;;;;;2.50;0.57;;;;;;;;;;6124129;23;20041;-80
2022/10/29 03:38:28;;;;;;;1.65;0.70;;;;;;;;;;6124738;23;20018;-80
2022/10/29 03:40:57;;;;;;;0.60;0.60;;;;;;;;;;6123970;23;20026;-80
2022/10/29 03:43:25;;;;;;;0.68;0.50;;;;;;;;;;6124476;23;20018;-80
2022/10/29 03:45:54;;;;;;;2.25;0.85;;;;;;;;;;6123561;23;20033;-80
2022/10/29 03:48:22;;;;;;;1.23;0.88;;;;;;;;;;6123202;23;20018;-80
2022/10/29 03:50:57;;;;;;;1.17;0.50;;;;;;;;;;6122522;23;20022;-81
2022/10/29 03:53:25;;;;;;;0.88;0.60;;;;;;;;;;6124591;23;20022;-80
2022/10/29 03:55:56;;;;;;;0.88;0.75;;;;;;;;;;6124334;23;20026;-83
2022/10/29 03:58:24;;;;;;;0.93;0.63;;;;;;;;;;6125451;23;20033;-80
2022/10/29 04:00:56;;;;;;;0.55;0.55;;;;;;;;;;6121062;23;20022;-84
2022/10/29 04:03:24;;;;;;;3.53;1.05;;;;;;;;;;6121992;23;20452;-80
2022/10/29 04:05:53;;;;;;;2.00;1.20;;;;;;;;;;6122820;23;20339;-81
2022/10/29 04:08:21;;;;;;;1.60;0.70;;;;;;;;;;6124578;23;20402;-82
2022/10/29 04:10:50;;;;;;;0.98;0.65;;;;;;;;;;6122588;23;20018;-80
2022/10/29 04:13:20;;;;;;;1.77;0.52;;;;;;;;;;6124202;23;20025;-80
2022/10/29 04:15:48;;;;;;;1.15;0.60;;;;;;;;;;6123288;23;20028;-81
2022/10/29 04:18:16;;;;;;;0.60;0.25;;;;;;;;;;6124295;23;20025;-80
2022/10/29 04:20:45;;;;;;;0.40;0.40;;;;;;;;;;6123732;23;20022;-80
2022/10/29 04:23:33;;;;;;;0.55;0.45;;;;;;;;;;6100972;23;20021;-81
2022/10/29 04:26:22;;;;;;;3.47;0.77;;;;;;;;;;6122914;23;20026;-80
2022/10/29 04:29:11;;;;;;;0.55;0.52;;;;;;;;;;6122694;23;20022;-80
2022/10/29 04:31:39;;;;;;;7.97;0.60;;;;;;;;;;6120936;23;20018;-80
2022/10/29 04:34:08;;;;;;;1.17;0.70;;;;;;;;;;6123806;23;20034;-80
2022/10/29 04:36:36;;;;;;;1.85;0.52;;;;;;;;;;6126538;23;20032;-80
2022/10/29 04:39:04;;;;;;;0.30;0.30;;;;;;;;;;6127325;23;20021;-80
2022/10/29 04:41:33;;;;;;;2.42;0.60;;;;;;;;;;6124536;23;20021;-81
2022/10/29 04:44:02;;;;;;;1.95;0.80;;;;;;;;;;6125067;23;20033;-80
2022/10/29 04:46:31;;;;;;;0.32;0.32;;;;;;;;;;6130908;23;20021;-80
2022/10/29 04:49:00;;;;;;;2.53;0.50;;;;;;;;;;6143088;23;20032;-80
2022/10/29 04:51:28;;;;;;;4.53;0.85;;;;;;;;;;6123929;23;20447;-80
2022/10/29 04:53:56;;;;;;;0.73;0.50;;;;;;;;;;6123337;23;20037;-80
2022/10/29 04:56:24;;;;;;;0.90;0.50;;;;;;;;;;6124627;23;20017;-80
2022/10/29 04:58:53;;;;;;;0.88;0.50;;;;;;;;;;6122489;23;20022;-80
2022/10/29 05:01:21;;;;;;;1.35;0.90;;;;;;;;;;6122581;23;20018;-82
2022/10/29 05:03:51;;;;;;;1.45;0.45;;;;;;;;;;6121770;23;20057;-82
2022/10/29 05:06:26;;;;;;;0.35;0.35;;;;;;;;;;6125119;23;20022;-80
2022/10/29 05:08:54;;;;;;;2.92;0.63;;;;;;;;;;6123014;23;20025;-80
2022/10/29 05:11:22;;;;;;;0.85;0.57;;;;;;;;;;6124228;23;20408;-80
2022/10/29 05:13:50;;;;;;;2.45;0.60;;;;;;;;;;6123102;23;20017;-80
2022/10/29 05:16:19;;;;;;;0.88;0.32;;;;;;;;;;6124021;23;20018;-80
2022/10/29 05:18:47;;;;;;;0.35;0.30;;;;;;;;;;6121460;23;20339;-81
2022/10/29 05:21:17;;;;;;;0.68;0.43;;;;;;;;;;6123260;23;20471;-80
2022/10/29 05:23:45;;;;;;;1.70;0.75;;;;;;;;;;6123258;23;20463;-80
2022/10/29 05:26:14;;;;;;;2.70;0.30;;;;;;;;;;6124459;23;20029;-80
2022/10/29 05:28:42;;;;;;;4.78;1.27;;;;;;;;;;6122638;23;20022;-78
2022/10/29 05:31:10;;;;;;;1.77;0.57;;;;;;;;;;6123156;23;20018;-78
2022/10/29 05:33:38;;;;;;;1.33;0.75;;;;;;;;;;6123927;23;20321;-83
2022/10/29 05:36:07;;;;;;;5.05;0.60;;;;;;;;;;6122613;23;20363;-80
2022/10/29 05:38:37;;;;;;;1.15;0.35;;;;;;;;;;6122671;23;20026;-80
2022/10/29 05:41:05;;;;;;;1.08;0.80;;;;;;;;;;6123449;23;20104;-80
2022/10/29 05:43:34;;;;;;;1.48;0.90;;;;;;;;;;6123234;23;20026;-83
2022/10/29 05:46:03;;;;;;;0.75;0.60;;;;;;;;;;6124810;23;20021;-80
2022/10/29 05:48:31;;;;;;;0.52;0.52;;;;;;;;;;6123292;23;20029;-79
2022/10/29 05:50:59;;;;;;;4.03;0.52;;;;;;;;;;6123930;23;20026;-80
2022/10/29 05:53:28;;;;;;;2.50;0.57;;;;;;;;;;6125140;23;20542;-82
2022/10/29 05:55:59;;;;;;;1.08;0.95;;;;;;;;;;6124382;23;20022;-81
2022/10/29 05:58:27;;;;;;;0.32;0.32;;;;;;;;;;6125181;23;20022;-80
2022/10/29 06:00:55;;;;;;;2.58;0.38;;;;;;;;;;6126247;23;20105;-81
2022/10/29 06:03:24;;;;;;;1.23;0.30;;;;;;;;;;6125498;23;20463;-81
2022/10/29 06:05:52;;;;;;;0.85;0.57;;;;;;;;;;6123921;23;20030;-85
2022/10/29 06:08:20;;;;;;;0.65;0.63;;;;;;;;;;6120616;23;20109;-83
2022/10/29 06:10:49;;;;;;;8.75;1.60;;;;;;;;;;6123077;23;20025;-82
2022/10/29 06:13:19;;;;;;;0.90;0.50;;;;;;;;;;6123618;23;20053;-80
2022/10/29 06:15:48;;;;;;;0.70;0.43;;;;;;;;;;6120930;23;20029;-82
2022/10/29 06:18:16;;;;;;;0.60;0.60;;;;;;;;;;6120336;23;20026;-81
2022/10/29 06:20:45;;;;;;;5.38;0.52;;;;;;;;;;6119476;23;20037;-85
2022/10/29 06:23:13;;;;;;;5.10;0.60;;;;;;;;;;6119693;23;20104;-81
2022/10/29 06:25:41;;;;;;;2.60;0.63;;;;;;;;;;6121439;23;20052;-81
2022/10/29 06:28:13;;;;;;;4.32;0.45;;;;;;;;;;6120945;23;20022;-80
2022/10/29 06:30:47;;;;;;;2.13;0.60;;;;;;;;;;6118673;23;20022;-82
2022/10/29 06:33:15;;;;;;;0.98;0.43;;;;;;;;;;6121109;23;20022;-81
2022/10/29 06:35:44;;;;;;;8.48;0.80;;;;;;;;;;6119833;23;20082;-82
2022/10/29 06:38:12;;;;;;;2.70;0.55;;;;;;;;;;6120806;23;20382;-82
2022/10/29 06:40:40;;;;;;;1.60;0.52;;;;;;;;;;6119693;23;20026;-81
2022/10/29 06:43:10;;;;;;;3.05;0.98;;;;;;;;;;6120591;23;20472;-81
2022/10/29 06:45:38;;;;;;;0.50;0.30;;;;;;;;;;6115163;23;20033;-86
2022/10/29 06:48:08;;;;;;;1.25;0.70;;;;;;;;;;6117114;23;20022;-84
2022/10/29 06:50:37;;;;;;;0.20;0.20;;;;;;;;;;6120551;23;20116;-83
2022/10/29 06:53:06;;;;;;;1.67;0.60;;;;;;;;;;6119683;23;20032;-83
2022/10/29 06:55:34;;;;;;;0.65;0.20;;;;;;;;;;6120825;23;20029;-84
2022/10/29 06:58:03;;;;;;;0.20;0.20;;;;;;;;;;6121397;23;20053;-84
2022/10/29 07:00:32;;;;;;;0.25;0.20;;;;;;;;;;6119845;23;20029;-83
2022/10/29 07:03:00;;;;;;;2.42;0.50;;;;;;;;;;6118827;23;20041;-83
2022/10/29 07:05:30;;;;;;;0.22;0.22;;;;;;;;;;6118942;23;20518;-82
2022/10/29 07:07:59;;;;;;;1.58;0.40;;;;;;;;;;6121282;23;20036;-83
2022/10/29 07:10:28;;;;;;;5.90;1.42;;;;;;;;;;6128331;23;20026;-85
2022/10/29 07:12:57;;;;;;;1.27;1.13;;;;;;;;;;6126089;23;20033;-83
2022/10/29 07:15:25;;;;;;;1.23;0.40;;;;;;;;;;6123892;23;20510;-82
2022/10/29 07:17:57;;;;;;;1.40;0.60;;;;;;;;;;6129343;23;20053;-81
2022/10/29 07:20:26;;;;;;;0.57;0.45;;;;;;;;;;6133391;23;20117;-86
2022/10/29 07:22:57;;;;;;;0.75;0.57;;;;;;;;;;6124478;23;20036;-82
2022/10/29 07:25:25;;;;;;;1.75;0.55;;;;;;;;;;6120651;23;20018;-81
2022/10/29 07:27:53;;;;;;;3.45;0.63;;;;;;;;;;6119829;23;20394;-80
2022/10/29 07:30:23;;;;;;;0.82;0.82;;;;;;;;;;6119559;23;20118;-80
2022/10/29 07:32:51;;;;;;;0.68;0.45;;;;;;;;;;6114872;23;20033;-80
2022/10/29 07:35:20;;;;;;;1.65;0.55;;;;;;;;;;6120366;23;20092;-80
2022/10/29 07:37:48;;;;;;;4.43;0.88;;;;;;;;;;6118352;23;20081;-80
2022/10/29 07:40:18;;;;;;;2.47;0.30;;;;;;;;;;6119335;23;20029;-80
2022/10/29 07:42:46;;;;;;;1.35;0.88;;;;;;;;;;6119050;23;20079;-80
2022/10/29 07:48:47;;;;;;;6.32;0.90;;;;;;;;;;6112836;23;20517;-81
2022/10/29 07:51:15;;;;;;;1.23;0.68;;;;;;;;;;6118619;23;20018;-80
2022/10/29 07:53:43;;;;;;;1.85;0.50;;;;;;;;;;6120831;23;20359;-80
2022/10/29 07:56:13;;;;;;;1.05;0.63;;;;;;;;;;6119938;23;20526;-81
2022/10/29 07:58:41;;;;;;;2.85;0.73;;;;;;;;;;6121096;23;20375;-80
2022/10/29 08:01:10;;;;;;;1.70;0.75;;;;;;;;;;6119204;23;20021;-80
2022/10/29 08:03:38;;;;;;;1.20;0.50;;;;;;;;;;6119275;23;20037;-81
2022/10/29 08:06:06;;;;;;;0.30;0.30;;;;;;;;;;6120630;23;20029;-80
2022/10/29 08:08:35;;;;;;;3.90;1.38;;;;;;;;;;6122871;23;20037;-80
2022/10/29 08:11:04;;;;;;;2.72;0.65;;;;;;;;;;6121848;23;20036;-80
2022/10/29 08:13:34;;;;;;;0.75;0.30;;;;;;;;;;6121943;23;20028;-84
2022/10/29 08:16:02;;;;;;;2.00;0.70;;;;;;;;;;6119102;23;20022;-83
2022/10/29 08:18:30;;;;;;;3.22;0.45;;;;;;;;;;6123057;23;20021;-78
2022/10/29 08:20:59;;;;;;;3.35;0.50;;;;;;;;;;6123403;23;20022;-81
2022/10/29 08:23:27;;;;;;;1.95;0.50;;;;;;;;;;6124077;23;20026;-81
2022/10/29 08:25:57;;;;;;;2.20;0.65;;;;;;;;;;6121815;23;20486;-80
2022/10/29 08:28:26;;;;;;;2.38;0.52;;;;;;;;;;6122060;23;20467;-80
2022/10/29 08:30:58;;;;;;;0.30;0.30;;;;;;;;;;6121088;23;20026;-79
2022/10/29 08:33:27;;;;;;;0.55;0.40;;;;;;;;;;6122221;23;20044;-80
2022/10/29 08:35:55;;;;;;;0.65;0.40;;;;;;;;;;6120999;23;20328;-79
2022/10/29 08:38:23;;;;;;;10.00;0.82;;;;;;;;;;6122442;23;20025;-79
2022/10/29 08:41:01;;;;;;;1.83;0.65;;;;;;;;;;6120807;23;20340;-80
2022/10/29 08:43:37;;;;;;;2.00;0.70;;;;;;;;;;6121226;23;20109;-77
2022/10/29 08:46:17;;;;;;;1.70;0.50;;;;;;;;;;6124035;23;20022;-79
2022/10/29 08:48:49;;;;;;;0.88;0.50;;;;;;;;;;6123501;23;20022;-79
2022/10/29 08:51:21;;;;;;;1.15;0.63;;;;;;;;;;6122346;23;20478;-80
2022/10/29 08:53:50;;;;;;;1.50;0.30;;;;;;;;;;6120394;23;20537;-79
2022/10/29 08:56:40;;;;;;;1.00;0.60;;;;;;;;;;6119965;23;20333;-80
2022/10/29 08:59:12;;;;;;;0.30;0.30;;;;;;;;;;6118690;23;20033;-77
2022/10/29 09:01:42;;;;;;;5.80;0.80;;;;;;;;;;6118782;23;20029;-78
2022/10/29 09:04:17;;;;;;;2.75;0.60;;;;;;;;;;6121906;23;20325;-78
2022/10/29 09:06:53;;;;;;;9.52;0.85;;;;;;;;;;6122970;23;20029;-78
2022/10/29 09:09:30;;;;;;;0.82;0.50;;;;;;;;;;6124004;23;20022;-79
2022/10/29 09:12:07;;;;;;;1.52;0.50;;;;;;;;;;6121837;23;20018;-79
2022/10/29 09:14:47;;;;;;;0.85;0.45;;;;;;;;;;6122271;23;20025;-79
2022/10/29 09:17:21;;;;;;;3.17;1.23;;;;;;;;;;6121031;23;20032;-80
2022/10/29 09:19:59;;;;;;;0.85;0.40;;;;;;;;;;6121351;23;20143;-79
2022/10/29 09:22:29;;;;;;;6.70;0.63;;;;;;;;;;6120551;23;20051;-79
2022/10/29 09:25:00;;;;;;;5.60;0.45;;;;;;;;;;6118106;23;20030;-81
2022/10/29 09:27:33;;;;;;;0.80;0.40;;;;;;;;;;6117891;23;20018;-80
2022/10/29 09:30:05;;;;;;;3.55;0.57;;;;;;;;;;6123556;23;20022;-79
2022/10/29 09:32:37;;;;;;;8.57;1.35;;;;;;;;;;6122374;23;20337;-80
2022/10/29 09:35:10;;;;;;;2.28;0.85;;;;;;;;;;6122361;23;20026;-81
2022/10/29 09:37:41;;;;;;;1.77;0.60;;;;;;;;;;6122339;23;20033;-79
2022/10/29 09:40:16;;;;;;;2.83;0.73;;;;;;;;;;6121911;23;20018;-77
2022/10/29 09:42:46;;;;;;;6.60;0.60;;;;;;;;;;6121434;23;20026;-77
2022/10/29 09:45:16;;;;;;;3.60;0.85;;;;;;;;;;6123281;23;20021;-79
2022/10/29 09:47:50;;;;;;;1.48;0.40;;;;;;;;;;6122766;23;20022;-79
2022/10/29 09:50:22;;;;;;;0.80;0.30;;;;;;;;;;6123778;23;20028;-79
2022/10/29 09:52:51;;;;;;;0.85;0.52;;;;;;;;;;6122127;23;20414;-78
2022/10/29 09:55:21;;;;;;;2.20;0.65;;;;;;;;;;6123577;23;20018;-79
2022/10/29 09:57:50;;;;;;;1.30;0.85;;;;;;;;;;6122546;23;20029;-80
2022/10/29 10:00:20;;;;;;;2.80;0.40;;;;;;;;;;6123109;23;20396;-78
2022/10/29 10:02:53;;;;;;;2.15;0.85;;;;;;;;;;6119832;23;20463;-79
2022/10/29 10:05:25;;;;;;;4.57;0.80;;;;;;;;;;6122083;23;20452;-78
2022/10/29 10:08:15;;;;;;;1.42;0.68;;;;;;;;;;6121474;23;20451;-77
2022/10/29 10:10:52;;;;;;;1.50;0.63;;;;;;;;;;6116647;23;20026;-75
2022/10/29 10:13:21;;;;;;;2.03;0.52;;;;;;;;;;6096417;23;20026;-77
2022/10/29 10:15:55;;;;;;;8.18;0.70;;;;;;;;;;6123196;23;20022;-77
2022/10/29 10:18:25;;;;;;;3.10;1.85;;;;;;;;;;6121655;23;20029;-77
2022/10/29 10:21:04;;;;;;;1.77;0.55;;;;;;;;;;6120299;23;20022;-77
2022/10/29 10:23:40;;;;;;;0.52;0.32;;;;;;;;;;6121823;23;20057;-77
2022/10/29 10:26:23;;;;;;;1.27;0.82;;;;;;;;;;6117410;23;20410;-77
2022/10/29 10:29:03;;;;;;;0.85;0.40;;;;;;;;;;6121476;23;20348;-78
2022/10/29 10:31:32;;;;;;;1.52;0.98;;;;;;;;;;6122090;23;20028;-77
2022/10/29 10:34:08;;;;;;;0.93;0.40;;;;;;;;;;6121061;23;20444;-78
2022/10/29 10:36:39;;;;;;;5.03;0.55;;;;;;;;;;6123316;23;20044;-77
2022/10/29 10:39:17;;;;;;;0.60;0.20;;;;;;;;;;6123949;23;20026;-78
2022/10/29 10:41:46;;;;;;;5.53;0.63;;;;;;;;;;6123967;23;20320;-79
2022/10/29 10:44:14;;;;;;;2.92;0.38;;;;;;;;;;6123777;23;20018;-78
2022/10/29 10:46:43;;;;;;;3.20;1.70;;;;;;;;;;6125021;23;20036;-79
2022/10/29 10:49:16;;;;;;;5.88;1.17;;;;;;;;;;6124859;23;20018;-79
2022/10/29 10:51:45;;;;;;;1.95;0.75;;;;;;;;;;6123887;23;20033;-77
2022/10/29 10:54:26;;;;;;;2.80;1.35;;;;;;;;;;6125577;23;20018;-78
2022/10/29 10:56:57;;;;;;;1.98;0.55;;;;;;;;;;6121608;23;20028;-78
2022/10/29 10:59:28;;;;;;;6.60;0.70;;;;;;;;;;6123842;23;20081;-78
2022/10/29 11:01:59;;;;;;;1.60;1.30;;;;;;;;;;6123317;23;20033;-78
2022/10/29 11:04:31;;;;;;;1.10;0.55;;;;;;;;;;6124495;23;20033;-78
2022/10/29 11:07:02;;;;;;;7.18;0.85;;;;;;;;;;6123604;23;20026;-79
2022/10/29 11:09:34;;;;;;;0.70;0.47;;;;;;;;;;6125243;23;20028;-79
2022/10/29 11:12:05;;;;;;;2.67;0.65;;;;;;;;;;6124677;23;20029;-79
2022/10/29 11:14:36;;;;;;;2.08;0.43;;;;;;;;;;6125635;23;20033;-79
2022/10/29 11:17:07;;;;;;;1.77;0.63;;;;;;;;;;6124968;23;20466;-79
2022/10/29 11:19:40;;;;;;;1.95;0.45;;;;;;;;;;6125105;23;20383;-79
2022/10/29 11:22:13;;;;;;;0.70;0.40;;;;;;;;;;6124127;23;20033;-79
2022/10/29 11:24:45;;;;;;;4.88;1.38;;;;;;;;;;6125257;23;20085;-79
2022/10/29 11:27:21;;;;;;;1.30;0.63;;;;;;;;;;6124060;23;20028;-81
2022/10/29 11:29:54;;;;;;;3.55;0.50;;;;;;;;;;6125578;23;20018;-79
2022/10/29 11:32:24;;;;;;;0.95;0.50;;;;;;;;;;6124253;23;20101;-79
2022/10/29 11:34:58;;;;;;;2.13;0.73;;;;;;;;;;6123094;23;20022;-80
2022/10/29 11:37:30;;;;;;;0.80;0.60;;;;;;;;;;6124252;23;20337;-78
2022/10/29 11:40:00;;;;;;;3.45;0.60;;;;;;;;;;6121038;23;20045;-80
2022/10/29 11:42:28;;;;;;;4.90;1.42;;;;;;;;;;6124425;23;20033;-82
2022/10/29 11:44:58;;;;;;;5.47;1.55;;;;;;;;;;6124935;23;20036;-83
2022/10/29 11:47:38;;;;;;;0.40;0.40;;;;;;;;;;6125852;23;20028;-83
2022/10/29 11:50:14;;;;;;;4.07;1.10;;;;;;;;;;6124395;23;20376;-83
2022/10/29 11:52:47;;;;;;;0.68;0.40;;;;;;;;;;6124138;23;20018;-83
2022/10/29 11:55:20;;;;;;;2.83;0.40;;;;;;;;;;6119163;23;20542;-82
2022/10/29 11:57:51;;;;;;;1.05;0.40;;;;;;;;;;6122641;23;20021;-84
2022/10/29 12:00:20;;;;;;;6.60;0.82;;;;;;;;;;6123990;23;20057;-84
2022/10/29 12:03:03;;;;;;;2.13;0.47;;;;;;;;;;6122696;23;20026;-84
2022/10/29 12:05:37;;;;;;;1.77;0.82;;;;;;;;;;6122283;23;20047;-84
2022/10/29 12:08:15;;;;;;;2.38;0.35;;;;;;;;;;6125263;23;20017;-82
2022/10/29 12:10:48;;;;;;;0.40;0.30;;;;;;;;;;6124657;23;20490;-84
2022/10/29 12:13:21;;;;;;;0.52;0.40;;;;;;;;;;6098215;23;20444;-84
2022/10/29 12:15:54;;;;;;;6.13;0.75;;;;;;;;;;6125127;23;20022;-84
2022/10/29 12:18:25;;;;;;;1.30;0.38;;;;;;;;;;6125270;23;20025;-84
2022/10/29 12:20:59;;;;;;;17.67;1.67;;;;;;;;;;6125127;23;20029;-85
2022/10/29 12:23:32;;;;;;;7.85;0.68;;;;;;;;;;6122545;23;20040;-85
2022/10/29 12:26:06;;;;;;;3.50;0.40;;;;;;;;;;6121814;23;20026;-84
2022/10/29 12:28:38;;;;;;;1.93;1.00;;;;;;;;;;6125623;23;20017;-84
2022/10/29 12:31:11;;;;;;;1.00;0.50;;;;;;;;;;6124118;23;20105;-88
2022/10/29 12:33:43;;;;;;;0.93;0.60;;;;;;;;;;6115546;23;20021;-82
2022/10/29 12:36:16;;;;;;;3.60;1.42;;;;;;;;;;6114015;23;20022;-85
2022/10/29 12:38:48;;;;;;;4.13;0.90;;;;;;;;;;6124214;23;20025;-78
2022/10/29 12:41:18;;;;;;;3.10;1.02;;;;;;;;;;6125914;23;20013;-79
2022/10/29 12:43:47;;;;;;;2.67;0.70;;;;;;;;;;6123892;23;20024;-77
2022/10/29 12:46:20;;;;;;;0.80;0.30;;;;;;;;;;6123660;23;20352;-82
2022/10/29 12:48:53;;;;;;;1.35;0.70;;;;;;;;;;6122917;23;20029;-78
2022/10/29 12:51:30;;;;;;;4.68;0.70;;;;;;;;;;6122135;23;20105;-80
2022/10/29 12:54:17;;;;;;;2.13;0.60;;;;;;;;;;6122293;23;20049;-80
2022/10/29 12:56:45;;;;;;;6.53;1.08;;;;;;;;;;6124986;23;20054;-80
2022/10/29 12:59:34;;;;;;;5.38;0.88;;;;;;;;;;6124265;23;20030;-80
2022/10/29 13:02:21;;;;;;;1.80;0.80;;;;;;;;;;6124183;23;20025;-84
2022/10/29 13:05:13;;;;;;;1.00;0.52;;;;;;;;;;6124868;23;20030;-79
2022/10/29 13:07:57;;;;;;;0.77;0.52;;;;;;;;;;6124511;23;20018;-81
2022/10/29 13:10:44;;;;;;;2.38;0.40;;;;;;;;;;6124086;23;20022;-80
2022/10/29 13:13:22;;;;;;;0.88;0.50;;;;;;;;;;6122967;23;20014;-78
2022/10/29 13:15:59;;;;;;;1.08;0.55;;;;;;;;;;6123932;23;20022;-79
2022/10/29 13:18:29;;;;;;;8.77;0.98;;;;;;;;;;6123112;23;20109;-80
2022/10/29 13:20:57;;;;;;;1.92;0.50;;;;;;;;;;6123214;23;20026;-80
2022/10/29 13:23:33;;;;;;;2.85;0.40;;;;;;;;;;6122453;23;20029;-80
2022/10/29 13:26:04;;;;;;;2.08;0.57;;;;;;;;;;6120189;23;20343;-80
2022/10/29 13:28:51;;;;;;;2.42;0.43;;;;;;;;;;6122751;23;20022;-79
2022/10/29 13:31:37;;;;;;;0.40;0.40;;;;;;;;;;6121491;23;20037;-82
2022/10/29 13:34:07;;;;;;;1.40;0.73;;;;;;;;;;6124361;23;20054;-86
2022/10/29 13:36:37;;;;;;;1.95;0.80;;;;;;;;;;6124471;23;20337;-86
2022/10/29 13:39:19;;;;;;;2.28;0.75;;;;;;;;;;6124379;23;20460;-87
2022/10/29 13:41:51;;;;;;;2.25;0.60;;;;;;;;;;6124526;23;20018;-87
2022/10/29 13:44:22;;;;;;;2.20;0.95;;;;;;;;;;6122753;23;20087;-87
2022/10/29 13:46:53;;;;;;;4.72;0.60;;;;;;;;;;6124128;23;20030;-87
2022/10/29 13:49:22;;;;;;;6.85;0.90;;;;;;;;;;6121816;23;20096;-86
2022/10/29 13:51:53;;;;;;;1.65;0.82;;;;;;;;;;6107151;23;20078;-87
2022/10/29 13:54:31;;;;;;;1.35;1.00;;;;;;;;;;6123129;23;20018;-87
2022/10/29 13:57:03;;;;;;;1.17;0.88;;;;;;;;;;6123490;23;20355;-87
2022/10/29 13:59:39;;;;;;;1.60;0.52;;;;;;;;;;6124916;23;20026;-85
2022/10/29 14:02:29;;;;;;;2.67;0.30;;;;;;;;;;6124619;23;20482;-87
2022/10/29 14:05:01;;;;;;;1.98;0.68;;;;;;;;;;6119135;23;20029;-87
2022/10/29 14:07:31;;;;;;;9.95;0.88;;;;;;;;;;6125709;23;20018;-87
2022/10/29 14:10:03;;;;;;;3.47;0.80;;;;;;;;;;6124892;23;20022;-87
2022/10/29 14:12:32;;;;;;;2.15;1.02;;;;;;;;;;6124846;23;20021;-88
2022/10/29 14:15:10;;;;;;;2.50;0.57;;;;;;;;;;6124622;23;20088;-87
2022/10/29 14:17:39;;;;;;;1.73;1.10;;;;;;;;;;6124674;23;20032;-87
2022/10/29 14:20:20;;;;;;;0.88;0.35;;;;;;;;;;6124121;23;20026;-87
2022/10/29 14:22:48;;;;;;;1.33;0.63;;;;;;;;;;6083391;23;20035;-86
2022/10/29 14:25:33;;;;;;;3.20;0.45;;;;;;;;;;6093185;23;20098;-86
2022/10/29 14:28:18;;;;;;;3.70;0.50;;;;;;;;;;6094475;23;20030;-90
2022/10/29 14:30:59;;;;;;;1.70;0.40;;;;;;;;;;6094392;23;20027;-87
2022/10/29 14:33:29;;;;;;;4.15;1.00;;;;;;;;;;6093805;23;20363;-86
2022/10/29 14:35:59;;;;;;;2.75;0.70;;;;;;;;;;6093523;23;20014;-90
2022/10/29 14:38:37;;;;;;;3.17;1.05;;;;;;;;;;6094339;23;20026;-90
2022/10/29 14:41:06;;;;;;;2.97;0.50;;;;;;;;;;6092557;23;20022;-87
2022/10/29 14:43:36;;;;;;;5.82;0.52;;;;;;;;;;6089438;23;20041;-88
2022/10/29 14:46:13;;;;;;;7.93;0.77;;;;;;;;;;6089930;23;20026;-88
2022/10/29 14:48:47;;;;;;;3.03;0.93;;;;;;;;;;6116564;23;20034;-87
2022/10/29 14:51:19;;;;;;;0.90;0.30;;;;;;;;;;6121498;23;20018;-87
2022/10/29 14:53:52;;;;;;;0.20;0.20;;;;;;;;;;6122722;23;20523;-86
2022/10/29 14:56:21;;;;;;;1.25;0.75;;;;;;;;;;6121885;23;20022;-87
2022/10/29 14:58:49;;;;;;;3.33;0.70;;;;;;;;;;6121635;23;20021;-88
2022/10/29 15:01:19;;;;;;;7.32;1.15;;;;;;;;;;6121063;23;20467;-88
2022/10/29 15:03:57;;;;;;;1.77;0.70;;;;;;;;;;6123147;23;20085;-87
2022/10/29 15:06:27;;;;;;;1.75;0.90;;;;;;;;;;6122452;23;20018;-88
2022/10/29 15:08:57;;;;;;;1.35;1.00;;;;;;;;;;6122291;23;20022;-87
2022/10/29 15:11:32;;;;;;;4.15;0.75;;;;;;;;;;6118209;23;20025;-87